sensor_id;sensor_type;location;lat;lon;timestamp;temperature;humidity
20125;DHT22;10223;50.862;4.360;2022-12-18T00:01:01;0.10;99.90
20125;DHT22;10223;50.862;4.360;2022-12-18T00:03:31;0.10;99.90
20125;DHT22;10223;50.862;4.360;2022-12-18T00:05:58;0.10;99.90
20125;DHT22;10223;50.862;4.360;2022-12-18T00:08:25;0.10;99.90
20125;DHT22;10223;50.862;4.360;2022-12-18T00:10:52;0.00;99.90
20125;DHT22;10223;50.862;4.360;2022-12-18T00:13:19;-0.20;99.90
20125;DHT22;10223;50.862;4.360;2022-12-18T00:15:47;-0.30;99.90
20125;DHT22;10223;50.862;4.360;2022-12-18T00:18:14;-0.40;99.90
20125;DHT22;10223;50.862;4.360;2022-12-18T00:20:41;-0.30;99.90
20125;DHT22;10223;50.862;4.360;2022-12-18T00:23:08;-0.40;99.90
20125;DHT22;10223;50.862;4.360;2022-12-18T00:25:36;-0.50;99.90
20125;DHT22;10223;50.862;4.360;2022-12-18T00:28:03;-0.50;99.90
20125;DHT22;10223;50.862;4.360;2022-12-18T00:30:30;-0.60;99.90
20125;DHT22;10223;50.862;4.360;2022-12-18T00:32:58;-0.60;99.90
20125;DHT22;10223;50.862;4.360;2022-12-18T00:35:25;-0.90;99.90
20125;DHT22;10223;50.862;4.360;2022-12-18T00:37:52;-0.90;99.90
20125;DHT22;10223;50.862;4.360;2022-12-18T00:40:19;-1.00;99.90
20125;DHT22;10223;50.862;4.360;2022-12-18T00:42:46;-1.00;99.90
20125;DHT22;10223;50.862;4.360;2022-12-18T00:45:21;-0.90;99.90
20125;DHT22;10223;50.862;4.360;2022-12-18T00:47:48;-0.80;99.90
20125;DHT22;10223;50.862;4.360;2022-12-18T00:50:17;-0.90;99.90
20125;DHT22;10223;50.862;4.360;2022-12-18T00:52:44;-0.80;99.90
20125;DHT22;10223;50.862;4.360;2022-12-18T00:55:11;-0.70;99.90
20125;DHT22;10223;50.862;4.360;2022-12-18T00:57:38;-0.60;99.90
20125;DHT22;10223;50.862;4.360;2022-12-18T01:00:07;-0.60;99.90
20125;DHT22;10223;50.862;4.360;2022-12-18T01:02:34;-0.60;99.90
20125;DHT22;10223;50.862;4.360;2022-12-18T01:05:01;-0.40;99.90
20125;DHT22;10223;50.862;4.360;2022-12-18T01:07:30;-0.30;99.90
20125;DHT22;10223;50.862;4.360;2022-12-18T01:09:57;-0.20;99.90
20125;DHT22;10223;50.862;4.360;2022-12-18T01:12:24;-0.10;99.90
20125;DHT22;10223;50.862;4.360;2022-12-18T01:14:50;-0.20;99.90
20125;DHT22;10223;50.862;4.360;2022-12-18T01:17:17;-0.20;99.90
20125;DHT22;10223;50.862;4.360;2022-12-18T01:19:44;-0.20;99.90
20125;DHT22;10223;50.862;4.360;2022-12-18T01:22:11;-0.20;99.90
20125;DHT22;10223;50.862;4.360;2022-12-18T01:24:40;-0.10;99.90
20125;DHT22;10223;50.862;4.360;2022-12-18T01:27:07;-0.10;99.90
20125;DHT22;10223;50.862;4.360;2022-12-18T01:29:34;-0.20;99.90
20125;DHT22;10223;50.862;4.360;2022-12-18T01:32:01;-0.10;99.90
20125;DHT22;10223;50.862;4.360;2022-12-18T01:34:28;0.10;99.90
20125;DHT22;10223;50.862;4.360;2022-12-18T01:36:55;0.00;99.90
20125;DHT22;10223;50.862;4.360;2022-12-18T01:39:22;0.10;99.90
20125;DHT22;10223;50.862;4.360;2022-12-18T01:41:50;0.20;99.90
20125;DHT22;10223;50.862;4.360;2022-12-18T01:45:06;-0.10;99.90
20125;DHT22;10223;50.862;4.360;2022-12-18T01:47:38;-0.20;99.90
20125;DHT22;10223;50.862;4.360;2022-12-18T01:50:09;-0.30;99.90
20125;DHT22;10223;50.862;4.360;2022-12-18T01:52:41;-0.10;99.90
20125;DHT22;10223;50.862;4.360;2022-12-18T01:55:10;-0.30;99.90
20125;DHT22;10223;50.862;4.360;2022-12-18T01:57:39;-0.30;99.90
20125;DHT22;10223;50.862;4.360;2022-12-18T02:00:10;-0.40;99.90
20125;DHT22;10223;50.862;4.360;2022-12-18T02:02:37;-0.50;99.90
20125;DHT22;10223;50.862;4.360;2022-12-18T02:05:06;-0.40;99.90
20125;DHT22;10223;50.862;4.360;2022-12-18T02:07:40;-0.50;99.90
20125;DHT22;10223;50.862;4.360;2022-12-18T02:10:14;-0.40;99.90
20125;DHT22;10223;50.862;4.360;2022-12-18T02:12:48;-0.30;99.90
20125;DHT22;10223;50.862;4.360;2022-12-18T02:15:26;-0.40;99.90
20125;DHT22;10223;50.862;4.360;2022-12-18T02:17:57;-0.40;99.90
20125;DHT22;10223;50.862;4.360;2022-12-18T02:20:32;-0.50;99.90
20125;DHT22;10223;50.862;4.360;2022-12-18T02:23:09;-0.60;99.90
20125;DHT22;10223;50.862;4.360;2022-12-18T02:26:02;-0.50;99.90
20125;DHT22;10223;50.862;4.360;2022-12-18T02:28:36;-0.50;99.90
20125;DHT22;10223;50.862;4.360;2022-12-18T02:31:07;-0.60;99.90
20125;DHT22;10223;50.862;4.360;2022-12-18T02:33:36;-0.70;99.90
20125;DHT22;10223;50.862;4.360;2022-12-18T02:36:04;-0.70;99.90
20125;DHT22;10223;50.862;4.360;2022-12-18T02:38:33;-0.60;99.90
20125;DHT22;10223;50.862;4.360;2022-12-18T02:41:04;-0.50;99.90
20125;DHT22;10223;50.862;4.360;2022-12-18T02:43:32;-0.70;99.90
20125;DHT22;10223;50.862;4.360;2022-12-18T02:46:00;-0.70;99.90
20125;DHT22;10223;50.862;4.360;2022-12-18T02:48:47;-0.70;99.90
20125;DHT22;10223;50.862;4.360;2022-12-18T02:51:18;-0.80;99.90
20125;DHT22;10223;50.862;4.360;2022-12-18T02:53:51;-0.80;99.90
20125;DHT22;10223;50.862;4.360;2022-12-18T02:56:26;-0.80;99.90
20125;DHT22;10223;50.862;4.360;2022-12-18T02:58:59;-0.70;99.90
20125;DHT22;10223;50.862;4.360;2022-12-18T03:01:30;-0.50;99.90
20125;DHT22;10223;50.862;4.360;2022-12-18T03:04:04;-0.60;99.90
20125;DHT22;10223;50.862;4.360;2022-12-18T03:06:37;-0.50;99.90
20125;DHT22;10223;50.862;4.360;2022-12-18T03:09:09;-0.50;99.90
20125;DHT22;10223;50.862;4.360;2022-12-18T03:11:41;-0.50;99.90
20125;DHT22;10223;50.862;4.360;2022-12-18T03:14:30;-0.60;99.90
20125;DHT22;10223;50.862;4.360;2022-12-18T03:17:01;-0.90;99.90
20125;DHT22;10223;50.862;4.360;2022-12-18T03:19:31;-1.00;99.90
20125;DHT22;10223;50.862;4.360;2022-12-18T03:22:01;-1.00;99.90
20125;DHT22;10223;50.862;4.360;2022-12-18T03:24:31;-1.10;99.90
20125;DHT22;10223;50.862;4.360;2022-12-18T03:27:02;-1.10;99.90
20125;DHT22;10223;50.862;4.360;2022-12-18T03:29:35;-1.20;99.90
20125;DHT22;10223;50.862;4.360;2022-12-18T03:32:07;-1.20;99.90
20125;DHT22;10223;50.862;4.360;2022-12-18T03:34:38;-1.20;99.90
20125;DHT22;10223;50.862;4.360;2022-12-18T03:37:06;-1.20;99.90
20125;DHT22;10223;50.862;4.360;2022-12-18T03:39:35;-1.20;99.90
20125;DHT22;10223;50.862;4.360;2022-12-18T03:42:07;-1.20;99.90
20125;DHT22;10223;50.862;4.360;2022-12-18T03:44:43;-1.20;99.90
20125;DHT22;10223;50.862;4.360;2022-12-18T03:47:15;-1.20;99.90
20125;DHT22;10223;50.862;4.360;2022-12-18T03:49:48;-1.10;99.90
20125;DHT22;10223;50.862;4.360;2022-12-18T03:52:20;-1.10;99.90
20125;DHT22;10223;50.862;4.360;2022-12-18T03:54:51;-1.10;99.90
20125;DHT22;10223;50.862;4.360;2022-12-18T03:57:22;-1.10;99.90
20125;DHT22;10223;50.862;4.360;2022-12-18T03:59:55;-1.10;99.90
20125;DHT22;10223;50.862;4.360;2022-12-18T04:02:24;-1.00;99.90
20125;DHT22;10223;50.862;4.360;2022-12-18T04:04:53;-1.10;99.90
20125;DHT22;10223;50.862;4.360;2022-12-18T04:07:20;-1.10;99.90
20125;DHT22;10223;50.862;4.360;2022-12-18T04:09:48;-0.90;99.90
20125;DHT22;10223;50.862;4.360;2022-12-18T04:12:16;-1.10;99.90
20125;DHT22;10223;50.862;4.360;2022-12-18T04:14:45;-1.20;99.90
20125;DHT22;10223;50.862;4.360;2022-12-18T04:17:12;-1.20;99.90
20125;DHT22;10223;50.862;4.360;2022-12-18T04:19:38;-1.20;99.90
20125;DHT22;10223;50.862;4.360;2022-12-18T04:22:05;-1.10;99.90
20125;DHT22;10223;50.862;4.360;2022-12-18T04:24:32;-1.10;99.90
20125;DHT22;10223;50.862;4.360;2022-12-18T04:26:59;-1.10;99.90
20125;DHT22;10223;50.862;4.360;2022-12-18T04:29:26;-1.10;99.90
20125;DHT22;10223;50.862;4.360;2022-12-18T04:31:55;-1.00;99.90
20125;DHT22;10223;50.862;4.360;2022-12-18T04:34:22;-1.00;99.90
20125;DHT22;10223;50.862;4.360;2022-12-18T04:36:49;-1.00;99.90
20125;DHT22;10223;50.862;4.360;2022-12-18T04:39:16;-0.90;99.90
20125;DHT22;10223;50.862;4.360;2022-12-18T04:41:43;-0.90;99.90
20125;DHT22;10223;50.862;4.360;2022-12-18T04:44:10;-0.90;99.90
20125;DHT22;10223;50.862;4.360;2022-12-18T04:46:37;-1.00;99.90
20125;DHT22;10223;50.862;4.360;2022-12-18T04:49:06;-1.00;99.90
20125;DHT22;10223;50.862;4.360;2022-12-18T04:51:33;-1.00;99.90
20125;DHT22;10223;50.862;4.360;2022-12-18T04:54:00;-0.90;99.90
20125;DHT22;10223;50.862;4.360;2022-12-18T04:56:27;-0.90;99.90
20125;DHT22;10223;50.862;4.360;2022-12-18T04:58:54;-1.00;99.90
20125;DHT22;10223;50.862;4.360;2022-12-18T05:01:21;-1.20;99.90
20125;DHT22;10223;50.862;4.360;2022-12-18T05:03:48;-1.20;99.90
20125;DHT22;10223;50.862;4.360;2022-12-18T05:06:16;-1.10;99.90
20125;DHT22;10223;50.862;4.360;2022-12-18T05:08:43;-1.40;99.90
20125;DHT22;10223;50.862;4.360;2022-12-18T05:11:12;-1.40;99.90
20125;DHT22;10223;50.862;4.360;2022-12-18T05:13:41;-1.20;99.90
20125;DHT22;10223;50.862;4.360;2022-12-18T05:16:08;-1.30;99.90
20125;DHT22;10223;50.862;4.360;2022-12-18T05:18:36;-1.40;99.90
20125;DHT22;10223;50.862;4.360;2022-12-18T05:21:06;-1.20;99.90
20125;DHT22;10223;50.862;4.360;2022-12-18T05:23:37;-1.20;99.90
20125;DHT22;10223;50.862;4.360;2022-12-18T05:26:05;-1.20;99.90
20125;DHT22;10223;50.862;4.360;2022-12-18T05:28:34;-1.30;99.90
20125;DHT22;10223;50.862;4.360;2022-12-18T05:31:03;-1.20;99.90
20125;DHT22;10223;50.862;4.360;2022-12-18T05:33:31;-1.30;99.90
20125;DHT22;10223;50.862;4.360;2022-12-18T05:35:59;-1.20;99.90
20125;DHT22;10223;50.862;4.360;2022-12-18T05:38:27;-1.10;99.90
20125;DHT22;10223;50.862;4.360;2022-12-18T05:40:57;-1.10;99.90
20125;DHT22;10223;50.862;4.360;2022-12-18T05:43:25;-1.20;99.90
20125;DHT22;10223;50.862;4.360;2022-12-18T05:45:52;-1.30;99.90
20125;DHT22;10223;50.862;4.360;2022-12-18T05:48:20;-1.30;99.90
20125;DHT22;10223;50.862;4.360;2022-12-18T05:50:48;-1.30;99.90
20125;DHT22;10223;50.862;4.360;2022-12-18T05:53:18;-1.20;99.90
20125;DHT22;10223;50.862;4.360;2022-12-18T05:55:45;-1.20;99.90
20125;DHT22;10223;50.862;4.360;2022-12-18T05:58:14;-1.20;99.90
20125;DHT22;10223;50.862;4.360;2022-12-18T06:00:43;-1.20;99.90
20125;DHT22;10223;50.862;4.360;2022-12-18T06:03:11;-1.30;99.90
20125;DHT22;10223;50.862;4.360;2022-12-18T06:05:40;-1.40;99.90
20125;DHT22;10223;50.862;4.360;2022-12-18T06:08:07;-1.50;99.90
20125;DHT22;10223;50.862;4.360;2022-12-18T06:10:34;-1.50;99.90
20125;DHT22;10223;50.862;4.360;2022-12-18T06:13:01;-1.20;99.90
20125;DHT22;10223;50.862;4.360;2022-12-18T06:15:30;-1.20;99.90
20125;DHT22;10223;50.862;4.360;2022-12-18T06:17:57;-1.40;99.90
20125;DHT22;10223;50.862;4.360;2022-12-18T06:20:24;-1.50;99.90
20125;DHT22;10223;50.862;4.360;2022-12-18T06:22:50;-1.50;99.90
20125;DHT22;10223;50.862;4.360;2022-12-18T06:25:18;-1.40;99.90
20125;DHT22;10223;50.862;4.360;2022-12-18T06:27:47;-1.40;99.90
20125;DHT22;10223;50.862;4.360;2022-12-18T06:30:14;-1.40;99.90
20125;DHT22;10223;50.862;4.360;2022-12-18T06:32:43;-1.50;99.90
20125;DHT22;10223;50.862;4.360;2022-12-18T06:35:10;-1.60;99.90
20125;DHT22;10223;50.862;4.360;2022-12-18T06:37:37;-1.50;99.90
20125;DHT22;10223;50.862;4.360;2022-12-18T06:40:05;-1.50;99.90
20125;DHT22;10223;50.862;4.360;2022-12-18T06:42:32;-1.40;99.90
20125;DHT22;10223;50.862;4.360;2022-12-18T06:44:59;-1.30;99.90
20125;DHT22;10223;50.862;4.360;2022-12-18T06:47:26;-1.40;99.90
20125;DHT22;10223;50.862;4.360;2022-12-18T06:49:54;-1.20;99.90
20125;DHT22;10223;50.862;4.360;2022-12-18T06:52:21;-1.10;99.90
20125;DHT22;10223;50.862;4.360;2022-12-18T06:54:48;-1.20;99.90
20125;DHT22;10223;50.862;4.360;2022-12-18T06:57:15;-1.20;99.90
20125;DHT22;10223;50.862;4.360;2022-12-18T06:59:42;-1.30;99.90
20125;DHT22;10223;50.862;4.360;2022-12-18T07:02:11;-1.30;99.90
20125;DHT22;10223;50.862;4.360;2022-12-18T07:04:38;-1.30;99.90
20125;DHT22;10223;50.862;4.360;2022-12-18T07:07:06;-1.20;99.90
20125;DHT22;10223;50.862;4.360;2022-12-18T07:09:33;-1.40;99.90
20125;DHT22;10223;50.862;4.360;2022-12-18T07:12:00;-1.50;99.90
20125;DHT22;10223;50.862;4.360;2022-12-18T07:14:27;-1.60;99.90
20125;DHT22;10223;50.862;4.360;2022-12-18T07:16:54;-1.70;99.90
20125;DHT22;10223;50.862;4.360;2022-12-18T07:19:21;-1.80;99.90
20125;DHT22;10223;50.862;4.360;2022-12-18T07:21:51;-1.70;99.90
20125;DHT22;10223;50.862;4.360;2022-12-18T07:24:20;-1.70;99.90
20125;DHT22;10223;50.862;4.360;2022-12-18T07:26:47;-1.50;99.90
20125;DHT22;10223;50.862;4.360;2022-12-18T07:29:14;-1.70;99.90
20125;DHT22;10223;50.862;4.360;2022-12-18T07:31:41;-1.60;99.90
20125;DHT22;10223;50.862;4.360;2022-12-18T07:34:10;-1.60;99.90
20125;DHT22;10223;50.862;4.360;2022-12-18T07:36:37;-1.70;99.90
20125;DHT22;10223;50.862;4.360;2022-12-18T07:39:04;-1.60;99.90
20125;DHT22;10223;50.862;4.360;2022-12-18T07:41:32;-1.70;99.90
20125;DHT22;10223;50.862;4.360;2022-12-18T07:43:59;-1.50;99.90
20125;DHT22;10223;50.862;4.360;2022-12-18T07:46:26;-1.60;99.90
20125;DHT22;10223;50.862;4.360;2022-12-18T07:48:53;-1.50;99.90
20125;DHT22;10223;50.862;4.360;2022-12-18T07:51:20;-1.70;99.90
20125;DHT22;10223;50.862;4.360;2022-12-18T07:53:47;-1.70;99.90
20125;DHT22;10223;50.862;4.360;2022-12-18T07:56:14;-1.70;99.90
20125;DHT22;10223;50.862;4.360;2022-12-18T07:58:43;-1.70;99.90
20125;DHT22;10223;50.862;4.360;2022-12-18T08:01:11;-1.70;99.90
20125;DHT22;10223;50.862;4.360;2022-12-18T08:03:39;-1.60;99.90
20125;DHT22;10223;50.862;4.360;2022-12-18T08:06:08;-1.50;99.90
20125;DHT22;10223;50.862;4.360;2022-12-18T08:08:35;-1.60;99.90
20125;DHT22;10223;50.862;4.360;2022-12-18T08:11:03;-1.50;99.90
20125;DHT22;10223;50.862;4.360;2022-12-18T08:13:30;-1.40;99.90
20125;DHT22;10223;50.862;4.360;2022-12-18T08:15:59;-1.10;99.90
20125;DHT22;10223;50.862;4.360;2022-12-18T08:18:27;-1.00;99.90
20125;DHT22;10223;50.862;4.360;2022-12-18T08:20:54;-0.90;99.90
20125;DHT22;10223;50.862;4.360;2022-12-18T08:23:21;-0.70;99.90
20125;DHT22;10223;50.862;4.360;2022-12-18T08:25:48;-0.60;99.90
20125;DHT22;10223;50.862;4.360;2022-12-18T08:28:16;-0.60;99.90
20125;DHT22;10223;50.862;4.360;2022-12-18T08:30:43;-0.40;99.90
20125;DHT22;10223;50.862;4.360;2022-12-18T08:33:11;-0.30;99.90
20125;DHT22;10223;50.862;4.360;2022-12-18T08:35:38;-0.10;99.90
20125;DHT22;10223;50.862;4.360;2022-12-18T08:38:05;0.00;99.90
20125;DHT22;10223;50.862;4.360;2022-12-18T08:40:32;0.20;99.90
20125;DHT22;10223;50.862;4.360;2022-12-18T08:42:59;0.30;99.90
20125;DHT22;10223;50.862;4.360;2022-12-18T08:45:44;0.20;99.90
20125;DHT22;10223;50.862;4.360;2022-12-18T08:48:12;0.30;99.90
20125;DHT22;10223;50.862;4.360;2022-12-18T08:50:40;0.30;99.90
20125;DHT22;10223;50.862;4.360;2022-12-18T08:53:07;0.40;99.90
20125;DHT22;10223;50.862;4.360;2022-12-18T08:55:34;0.30;99.90
20125;DHT22;10223;50.862;4.360;2022-12-18T08:58:01;0.30;99.90
20125;DHT22;10223;50.862;4.360;2022-12-18T09:00:28;0.30;99.90
20125;DHT22;10223;50.862;4.360;2022-12-18T09:02:55;0.40;99.90
20125;DHT22;10223;50.862;4.360;2022-12-18T09:05:24;0.10;99.90
20125;DHT22;10223;50.862;4.360;2022-12-18T09:07:51;0.00;99.90
20125;DHT22;10223;50.862;4.360;2022-12-18T09:10:18;-0.20;99.90
20125;DHT22;10223;50.862;4.360;2022-12-18T09:12:45;-0.20;99.90
20125;DHT22;10223;50.862;4.360;2022-12-18T09:15:11;0.00;99.90
20125;DHT22;10223;50.862;4.360;2022-12-18T09:17:38;0.00;99.90
20125;DHT22;10223;50.862;4.360;2022-12-18T09:20:06;0.20;99.90
20125;DHT22;10223;50.862;4.360;2022-12-18T09:22:35;0.20;99.90
20125;DHT22;10223;50.862;4.360;2022-12-18T09:25:02;0.00;99.90
20125;DHT22;10223;50.862;4.360;2022-12-18T09:27:29;0.10;99.90
20125;DHT22;10223;50.862;4.360;2022-12-18T09:29:56;-0.10;99.90
20125;DHT22;10223;50.862;4.360;2022-12-18T09:32:23;0.00;99.90
20125;DHT22;10223;50.862;4.360;2022-12-18T09:34:50;-0.10;99.90
20125;DHT22;10223;50.862;4.360;2022-12-18T09:37:17;-0.20;99.90
20125;DHT22;10223;50.862;4.360;2022-12-18T09:39:45;-0.40;99.90
20125;DHT22;10223;50.862;4.360;2022-12-18T09:42:17;-0.50;99.90
20125;DHT22;10223;50.862;4.360;2022-12-18T09:44:49;-0.40;99.90
20125;DHT22;10223;50.862;4.360;2022-12-18T09:47:19;-0.30;99.90
20125;DHT22;10223;50.862;4.360;2022-12-18T09:49:47;-0.40;99.90
20125;DHT22;10223;50.862;4.360;2022-12-18T09:52:19;-0.30;99.90
20125;DHT22;10223;50.862;4.360;2022-12-18T09:54:53;-0.30;99.90
20125;DHT22;10223;50.862;4.360;2022-12-18T09:57:23;-0.40;99.90
20125;DHT22;10223;50.862;4.360;2022-12-18T09:59:55;-0.60;99.90
20125;DHT22;10223;50.862;4.360;2022-12-18T10:02:24;-0.50;99.90
20125;DHT22;10223;50.862;4.360;2022-12-18T10:05:00;-0.50;99.90
20125;DHT22;10223;50.862;4.360;2022-12-18T10:07:33;-0.40;99.90
20125;DHT22;10223;50.862;4.360;2022-12-18T10:10:12;-0.50;99.90
20125;DHT22;10223;50.862;4.360;2022-12-18T10:12:44;-0.30;99.90
20125;DHT22;10223;50.862;4.360;2022-12-18T10:15:18;-0.40;99.90
20125;DHT22;10223;50.862;4.360;2022-12-18T10:17:52;-0.40;99.90
20125;DHT22;10223;50.862;4.360;2022-12-18T10:20:24;-0.30;99.90
20125;DHT22;10223;50.862;4.360;2022-12-18T10:22:57;-0.20;99.90
20125;DHT22;10223;50.862;4.360;2022-12-18T10:25:33;-0.20;99.90
20125;DHT22;10223;50.862;4.360;2022-12-18T10:28:09;-0.10;99.90
20125;DHT22;10223;50.862;4.360;2022-12-18T10:30:39;-0.10;99.90
20125;DHT22;10223;50.862;4.360;2022-12-18T10:33:10;-0.10;99.90
20125;DHT22;10223;50.862;4.360;2022-12-18T10:35:41;0.00;99.90
20125;DHT22;10223;50.862;4.360;2022-12-18T10:38:21;0.00;99.90
20125;DHT22;10223;50.862;4.360;2022-12-18T10:40:52;0.10;99.90
20125;DHT22;10223;50.862;4.360;2022-12-18T10:43:21;0.00;99.90
20125;DHT22;10223;50.862;4.360;2022-12-18T10:46:12;0.00;99.90
20125;DHT22;10223;50.862;4.360;2022-12-18T10:48:51;0.10;99.90
20125;DHT22;10223;50.862;4.360;2022-12-18T10:51:26;0.10;99.90
20125;DHT22;10223;50.862;4.360;2022-12-18T10:53:57;0.10;99.90
20125;DHT22;10223;50.862;4.360;2022-12-18T10:56:27;0.20;99.90
20125;DHT22;10223;50.862;4.360;2022-12-18T10:58:57;0.10;99.90
20125;DHT22;10223;50.862;4.360;2022-12-18T11:01:25;0.10;99.90
20125;DHT22;10223;50.862;4.360;2022-12-18T11:04:01;0.20;99.90
20125;DHT22;10223;50.862;4.360;2022-12-18T11:06:28;0.30;99.90
20125;DHT22;10223;50.862;4.360;2022-12-18T11:09:00;0.40;99.90
20125;DHT22;10223;50.862;4.360;2022-12-18T11:11:29;0.50;99.90
20125;DHT22;10223;50.862;4.360;2022-12-18T11:14:03;0.60;99.90
20125;DHT22;10223;50.862;4.360;2022-12-18T11:16:36;0.70;99.90
20125;DHT22;10223;50.862;4.360;2022-12-18T11:19:17;0.80;99.90
20125;DHT22;10223;50.862;4.360;2022-12-18T11:21:46;1.00;99.90
20125;DHT22;10223;50.862;4.360;2022-12-18T11:24:20;0.90;99.90
20125;DHT22;10223;50.862;4.360;2022-12-18T11:26:49;1.00;99.90
20125;DHT22;10223;50.862;4.360;2022-12-18T11:29:17;1.10;99.90
20125;DHT22;10223;50.862;4.360;2022-12-18T11:31:44;1.00;99.90
20125;DHT22;10223;50.862;4.360;2022-12-18T11:34:23;1.10;99.90
20125;DHT22;10223;50.862;4.360;2022-12-18T11:36:53;1.20;99.90
20125;DHT22;10223;50.862;4.360;2022-12-18T11:39:27;1.20;99.90
20125;DHT22;10223;50.862;4.360;2022-12-18T11:42:03;1.40;99.90
20125;DHT22;10223;50.862;4.360;2022-12-18T11:44:42;1.50;99.90
20125;DHT22;10223;50.862;4.360;2022-12-18T11:47:13;1.30;99.90
20125;DHT22;10223;50.862;4.360;2022-12-18T11:49:42;1.30;99.90
20125;DHT22;10223;50.862;4.360;2022-12-18T11:52:15;1.30;99.90
20125;DHT22;10223;50.862;4.360;2022-12-18T11:54:43;1.30;99.90
20125;DHT22;10223;50.862;4.360;2022-12-18T11:57:23;1.30;99.90
20125;DHT22;10223;50.862;4.360;2022-12-18T11:59:58;1.10;99.90
20125;DHT22;10223;50.862;4.360;2022-12-18T12:02:49;1.10;99.90
20125;DHT22;10223;50.862;4.360;2022-12-18T12:05:29;1.10;99.90
20125;DHT22;10223;50.862;4.360;2022-12-18T12:08:02;1.10;99.90
20125;DHT22;10223;50.862;4.360;2022-12-18T12:10:42;1.10;99.90
20125;DHT22;10223;50.862;4.360;2022-12-18T12:13:25;1.20;99.90
20125;DHT22;10223;50.862;4.360;2022-12-18T12:16:10;1.10;99.90
20125;DHT22;10223;50.862;4.360;2022-12-18T12:18:53;1.20;99.90
20125;DHT22;10223;50.862;4.360;2022-12-18T12:21:27;1.10;99.90
20125;DHT22;10223;50.862;4.360;2022-12-18T12:24:01;1.20;99.90
20125;DHT22;10223;50.862;4.360;2022-12-18T12:26:35;1.10;99.90
20125;DHT22;10223;50.862;4.360;2022-12-18T12:29:24;1.10;99.90
20125;DHT22;10223;50.862;4.360;2022-12-18T12:32:16;1.20;99.90
20125;DHT22;10223;50.862;4.360;2022-12-18T12:34:54;1.20;99.90
20125;DHT22;10223;50.862;4.360;2022-12-18T12:37:32;1.20;99.90
20125;DHT22;10223;50.862;4.360;2022-12-18T12:40:02;1.30;99.90
20125;DHT22;10223;50.862;4.360;2022-12-18T12:42:32;1.30;99.90
20125;DHT22;10223;50.862;4.360;2022-12-18T12:45:25;1.40;99.90
20125;DHT22;10223;50.862;4.360;2022-12-18T12:47:54;1.40;99.90
20125;DHT22;10223;50.862;4.360;2022-12-18T12:50:22;1.30;99.90
20125;DHT22;10223;50.862;4.360;2022-12-18T12:52:52;1.30;99.90
20125;DHT22;10223;50.862;4.360;2022-12-18T12:55:21;1.40;99.90
20125;DHT22;10223;50.862;4.360;2022-12-18T12:57:55;1.30;99.90
20125;DHT22;10223;50.862;4.360;2022-12-18T13:00:29;1.40;99.90
20125;DHT22;10223;50.862;4.360;2022-12-18T13:03:04;1.60;99.90
20125;DHT22;10223;50.862;4.360;2022-12-18T13:05:40;1.60;99.90
20125;DHT22;10223;50.862;4.360;2022-12-18T13:08:09;1.70;99.90
20125;DHT22;10223;50.862;4.360;2022-12-18T13:10:37;1.60;99.90
20125;DHT22;10223;50.862;4.360;2022-12-18T13:13:07;1.50;99.90
20125;DHT22;10223;50.862;4.360;2022-12-18T13:15:38;1.50;99.90
20125;DHT22;10223;50.862;4.360;2022-12-18T13:18:16;1.60;99.90
20125;DHT22;10223;50.862;4.360;2022-12-18T13:20:45;1.50;99.90
20125;DHT22;10223;50.862;4.360;2022-12-18T13:23:30;1.50;99.90
20125;DHT22;10223;50.862;4.360;2022-12-18T13:25:59;1.40;99.90
20125;DHT22;10223;50.862;4.360;2022-12-18T13:28:50;1.40;99.90
20125;DHT22;10223;50.862;4.360;2022-12-18T13:34:21;1.40;99.90
20125;DHT22;10223;50.862;4.360;2022-12-18T13:36:48;1.40;99.90
20125;DHT22;10223;50.862;4.360;2022-12-18T13:39:24;1.50;99.90
20125;DHT22;10223;50.862;4.360;2022-12-18T13:41:53;1.40;99.90
20125;DHT22;10223;50.862;4.360;2022-12-18T13:44:32;1.40;99.90
20125;DHT22;10223;50.862;4.360;2022-12-18T13:47:00;1.50;99.90
20125;DHT22;10223;50.862;4.360;2022-12-18T13:49:36;1.40;99.90
20125;DHT22;10223;50.862;4.360;2022-12-18T13:52:15;1.40;99.90
20125;DHT22;10223;50.862;4.360;2022-12-18T13:54:47;1.30;99.90
20125;DHT22;10223;50.862;4.360;2022-12-18T13:57:26;1.40;99.90
20125;DHT22;10223;50.862;4.360;2022-12-18T13:59:54;1.40;99.90
20125;DHT22;10223;50.862;4.360;2022-12-18T14:02:22;1.50;99.90
20125;DHT22;10223;50.862;4.360;2022-12-18T14:04:52;1.50;99.90
20125;DHT22;10223;50.862;4.360;2022-12-18T14:07:21;1.40;99.90
20125;DHT22;10223;50.862;4.360;2022-12-18T14:09:51;1.40;99.90
20125;DHT22;10223;50.862;4.360;2022-12-18T14:12:20;1.40;99.90
20125;DHT22;10223;50.862;4.360;2022-12-18T14:15:09;1.40;99.90
20125;DHT22;10223;50.862;4.360;2022-12-18T14:17:40;1.60;99.90
20125;DHT22;10223;50.862;4.360;2022-12-18T14:20:14;1.50;99.90
20125;DHT22;10223;50.862;4.360;2022-12-18T14:22:43;1.40;99.90
20125;DHT22;10223;50.862;4.360;2022-12-18T14:25:18;1.40;99.90
20125;DHT22;10223;50.862;4.360;2022-12-18T14:27:47;1.50;99.90
20125;DHT22;10223;50.862;4.360;2022-12-18T14:30:27;1.60;99.90
20125;DHT22;10223;50.862;4.360;2022-12-18T14:33:05;1.50;99.90
20125;DHT22;10223;50.862;4.360;2022-12-18T14:35:34;1.60;99.90
20125;DHT22;10223;50.862;4.360;2022-12-18T14:38:20;1.70;99.90
20125;DHT22;10223;50.862;4.360;2022-12-18T14:40:51;1.80;99.90
20125;DHT22;10223;50.862;4.360;2022-12-18T14:43:18;1.60;99.90
20125;DHT22;10223;50.862;4.360;2022-12-18T14:45:45;1.50;99.90
20125;DHT22;10223;50.862;4.360;2022-12-18T14:48:16;1.40;99.90
20125;DHT22;10223;50.862;4.360;2022-12-18T14:50:55;1.40;99.90
20125;DHT22;10223;50.862;4.360;2022-12-18T14:53:24;1.30;99.90
20125;DHT22;10223;50.862;4.360;2022-12-18T14:55:54;1.30;99.90
20125;DHT22;10223;50.862;4.360;2022-12-18T14:58:22;1.40;99.90
20125;DHT22;10223;50.862;4.360;2022-12-18T15:00:49;1.50;99.90
20125;DHT22;10223;50.862;4.360;2022-12-18T15:03:18;1.30;99.90
20125;DHT22;10223;50.862;4.360;2022-12-18T15:05:48;1.30;99.90
20125;DHT22;10223;50.862;4.360;2022-12-18T15:08:28;1.30;99.90
20125;DHT22;10223;50.862;4.360;2022-12-18T15:10:55;1.40;99.90
20125;DHT22;10223;50.862;4.360;2022-12-18T15:13:24;1.50;99.90
20125;DHT22;10223;50.862;4.360;2022-12-18T15:15:52;1.50;99.90
20125;DHT22;10223;50.862;4.360;2022-12-18T15:18:21;1.60;99.90
20125;DHT22;10223;50.862;4.360;2022-12-18T15:20:52;1.60;99.90
20125;DHT22;10223;50.862;4.360;2022-12-18T15:23:22;1.70;99.90
20125;DHT22;10223;50.862;4.360;2022-12-18T15:25:55;1.60;99.90
20125;DHT22;10223;50.862;4.360;2022-12-18T15:28:24;1.50;99.90
20125;DHT22;10223;50.862;4.360;2022-12-18T15:31:00;1.60;99.90
20125;DHT22;10223;50.862;4.360;2022-12-18T15:33:31;1.50;99.90
20125;DHT22;10223;50.862;4.360;2022-12-18T15:36:01;1.60;99.90
20125;DHT22;10223;50.862;4.360;2022-12-18T15:38:28;1.60;99.90
20125;DHT22;10223;50.862;4.360;2022-12-18T15:40:56;1.60;99.90
20125;DHT22;10223;50.862;4.360;2022-12-18T15:43:24;1.80;99.90
20125;DHT22;10223;50.862;4.360;2022-12-18T15:46:00;1.60;99.90
20125;DHT22;10223;50.862;4.360;2022-12-18T15:48:27;1.60;99.90
20125;DHT22;10223;50.862;4.360;2022-12-18T15:50:56;1.60;99.90
20125;DHT22;10223;50.862;4.360;2022-12-18T15:53:29;1.60;99.90
20125;DHT22;10223;50.862;4.360;2022-12-18T15:55:57;1.80;99.90
20125;DHT22;10223;50.862;4.360;2022-12-18T15:58:42;1.70;99.90
20125;DHT22;10223;50.862;4.360;2022-12-18T16:01:09;1.70;99.90